Time,TemperatureF,DewpointF,PressureIn,WindDirection,WindDirectionDegrees,WindSpeedMPH,WindSpeedGustMPH,Humidity,HourlyPrecipIn,Conditions,Clouds,dailyrainin,SolarRadiationWatts/m^2,SoftwareType,DateUTC
2013-01-13 00:00:00,1.5,-2.5,30.13,NNW,348,0.0,1.0,83,0.00,,SKC,0.00,0.00,VWS V14.01,2013-01-13 07:00:00,
2013-01-13 00:02:00,1.5,-2.5,30.12,NNW,348,0.0,0.0,83,0.00,,SKC,0.00,0.00,VWS V14.01,2013-01-13 07:02:00,
2013-01-13 00:08:00,1.5,-2.5,30.12,NNW,348,0.0,0.0,83,0.00,,SKC,0.00,0.00,VWS V14.01,2013-01-13 07:08:00,
2013-01-13 00:14:00,1.4,-2.5,30.12,NNW,348,0.0,1.0,83,0.00,,SKC,0.00,0.00,VWS V14.01,2013-01-13 07:14:00,
2013-01-13 00:15:00,1.4,-2.5,30.12,NNW,348,0.0,1.0,83,0.00,,SKC,0.00,0.00,VWS V14.01,2013-01-13 07:15:00,
2013-01-13 00:20:00,1.3,-2.7,30.12,NNW,348,0.0,2.0,83,0.00,,SKC,0.00,0.00,VWS V14.01,2013-01-13 07:20:00,
2013-01-13 00:26:00,1.2,-2.8,30.12,NNW,348,0.0,2.0,83,0.00,,SKC,0.00,0.00,VWS V14.01,2013-01-13 07:26:00,
2013-01-13 00:30:00,1.2,-2.8,30.11,NNW,348,0.0,2.0,83,0.00,,SKC,0.00,0.00,VWS V14.01,2013-01-13 07:30:00,
2013-01-13 00:32:00,1.1,-2.8,30.11,NNW,348,0.0,0.0,83,0.00,,SKC,0.00,0.00,VWS V14.01,2013-01-13 07:32:00,
2013-01-13 00:38:00,1.0,-3.2,30.11,NNW,348,0.0,0.0,82,0.00,,SKC,0.00,0.00,VWS V14.01,2013-01-13 07:38:00,
2013-01-13 00:44:00,0.9,-3.3,30.11,NNW,348,0.0,0.0,82,0.00,,SKC,0.00,0.00,VWS V14.01,2013-01-13 07:44:00,
2013-01-13 00:45:00,0.9,-3.3,30.11,NNW,348,0.0,0.0,82,0.00,,SKC,0.00,0.00,VWS V14.01,2013-01-13 07:45:00,
2013-01-13 00:50:00,0.7,-3.5,30.12,NNW,348,0.0,0.0,82,0.00,,SKC,0.00,0.00,VWS V14.01,2013-01-13 07:50:00,
2013-01-13 00:57:00,0.5,-3.7,30.12,NNW,348,0.0,1.0,82,0.00,,SKC,0.00,0.00,VWS V14.01,2013-01-13 07:57:00,
2013-01-13 01:00:00,0.5,-3.7,30.12,NNW,348,0.0,1.0,82,0.00,,SKC,0.00,0.00,VWS V14.01,2013-01-13 08:00:00,
2013-01-13 01:03:00,0.4,-3.8,30.12,NNW,348,0.0,0.0,82,0.00,,SKC,0.00,0.00,VWS V14.01,2013-01-13 08:03:00,
2013-01-13 01:09:00,0.1,-4.1,30.13,NNW,348,0.0,1.0,82,0.00,,SKC,0.00,0.00,VWS V14.01,2013-01-13 08:09:00,
2013-01-13 01:15:00,-0.1,-4.3,30.13,NNW,348,0.0,1.0,82,0.00,,SKC,0.00,0.00,VWS V14.01,2013-01-13 08:15:00,
2013-01-13 01:21:00,-0.3,-4.5,30.13,NNW,348,0.0,0.0,82,0.00,,SKC,0.00,0.00,VWS V14.01,2013-01-13 08:21:00,
2013-01-13 01:26:00,-0.3,-4.5,30.13,NNW,348,0.0,0.0,82,0.00,,SKC,0.00,0.00,VWS V14.01,2013-01-13 08:26:00,
2013-01-13 01:30:00,-0.4,-4.6,30.13,NNW,348,0.0,0.0,82,0.00,,SKC,0.00,0.00,VWS V14.01,2013-01-13 08:30:00,
2013-01-13 01:33:00,-0.4,-4.6,30.13,NNW,348,0.0,0.0,82,0.00,,SKC,0.00,0.00,VWS V14.01,2013-01-13 08:33:00,
2013-01-13 01:38:00,-0.6,-4.8,30.15,NNW,348,0.0,0.0,82,0.00,,SKC,0.00,0.00,VWS V14.01,2013-01-13 08:38:00,
2013-01-13 01:44:00,-0.9,-5.3,30.15,NNW,348,0.0,0.0,81,0.00,,SKC,0.00,0.00,VWS V14.01,2013-01-13 08:44:00,
2013-01-13 01:45:00,-1.0,-5.4,30.15,NNW,348,0.0,0.0,81,0.00,,SKC,0.00,0.00,VWS V14.01,2013-01-13 08:45:00,
2013-01-13 01:50:00,-1.3,-5.7,30.15,NNW,348,0.0,1.0,81,0.00,,SKC,0.00,0.00,VWS V14.01,2013-01-13 08:50:00,
2013-01-13 01:56:00,-1.5,-5.9,30.16,NNW,348,0.0,1.0,81,0.00,,SKC,0.00,0.00,VWS V14.01,2013-01-13 08:56:00,
2013-01-13 02:00:00,-1.6,-5.7,30.14,NNW,348,0.0,1.0,82,0.00,,SKC,0.00,0.00,VWS V14.01,2013-01-13 09:00:00,
2013-01-13 02:02:00,-1.6,-5.7,30.14,NNW,348,0.0,0.0,82,0.00,,SKC,0.00,0.00,VWS V14.01,2013-01-13 09:02:00,
2013-01-13 02:09:00,-1.7,-6.1,30.14,NNW,348,0.0,0.0,81,0.00,,SKC,0.00,0.00,VWS V14.01,2013-01-13 09:09:00,
2013-01-13 02:15:00,-1.8,-6.2,30.15,NNW,348,0.0,0.0,81,0.00,,SKC,0.00,0.00,VWS V14.01,2013-01-13 09:15:00,
2013-01-13 02:21:00,-2.2,-6.6,30.14,NNW,348,0.0,0.0,81,0.00,,SKC,0.00,0.00,VWS V14.01,2013-01-13 09:21:00,
2013-01-13 02:27:00,-2.4,-6.8,30.14,NNW,348,0.0,0.0,81,0.00,,SKC,0.00,0.00,VWS V14.01,2013-01-13 09:27:00,
2013-01-13 02:30:00,-2.5,-6.9,30.16,NNW,348,0.0,0.0,81,0.00,,SKC,0.00,0.00,VWS V14.01,2013-01-13 09:30:00,
2013-01-13 02:32:00,-2.7,-7.3,30.16,NNW,348,0.0,1.0,80,0.00,,SKC,0.00,0.00,VWS V14.01,2013-01-13 09:32:00,
2013-01-13 02:38:00,-3.1,-7.7,30.16,NNW,348,0.0,1.0,80,0.00,,SKC,0.00,0.00,VWS V14.01,2013-01-13 09:38:00,
2013-01-13 02:44:00,-3.1,-7.5,30.15,NNW,348,0.0,1.0,81,0.00,,SKC,0.00,0.00,VWS V14.01,2013-01-13 09:44:00,
2013-01-13 02:45:00,-3.1,-7.5,30.15,NNW,348,0.0,1.0,81,0.00,,SKC,0.00,0.00,VWS V14.01,2013-01-13 09:45:00,
2013-01-13 02:50:00,-3.1,-7.5,30.15,NNW,348,0.0,0.0,81,0.00,,SKC,0.00,0.00,VWS V14.01,2013-01-13 09:50:00,
2013-01-13 02:57:00,-3.1,-7.2,30.15,NNW,348,0.0,2.0,82,0.00,,SKC,0.00,0.00,VWS V14.01,2013-01-13 09:57:00,
2013-01-13 03:00:00,-3.1,-7.2,30.15,NNW,348,0.0,2.0,82,0.00,,SKC,0.00,0.00,VWS V14.01,2013-01-13 10:00:00,
2013-01-13 03:03:00,-3.1,-7.2,30.19,NNW,348,0.0,0.0,82,0.00,,SKC,0.00,0.00,VWS V14.01,2013-01-13 10:03:00,
2013-01-13 03:09:00,-3.0,-7.1,30.18,NNW,348,0.0,0.0,82,0.00,,SKC,0.00,0.00,VWS V14.01,2013-01-13 10:09:00,
2013-01-13 03:15:00,-2.9,-7.0,30.18,NNW,348,0.0,0.0,82,0.00,,SKC,0.00,0.00,VWS V14.01,2013-01-13 10:15:00,
2013-01-13 03:22:00,-2.9,-7.0,30.18,NNW,348,0.0,0.0,82,0.00,,SKC,0.00,0.00,VWS V14.01,2013-01-13 10:22:00,
2013-01-13 03:28:00,-3.0,-7.1,30.18,NNW,348,0.0,0.0,82,0.00,,SKC,0.00,0.00,VWS V14.01,2013-01-13 10:28:00,
2013-01-13 03:30:00,-2.9,-7.0,30.18,NNW,348,0.0,0.0,82,0.00,,SKC,0.00,0.00,VWS V14.01,2013-01-13 10:30:00,
2013-01-13 03:34:00,-3.0,-7.1,30.18,NNW,348,0.0,0.0,82,0.00,,SKC,0.00,0.00,VWS V14.01,2013-01-13 10:34:00,
2013-01-13 03:40:00,-2.9,-7.0,30.17,NNW,348,0.0,0.0,82,0.00,,SKC,0.00,0.00,VWS V14.01,2013-01-13 10:40:00,
2013-01-13 03:45:00,-2.8,-6.9,30.17,NNW,348,0.0,0.0,82,0.00,,SKC,0.00,0.00,VWS V14.01,2013-01-13 10:45:00,
2013-01-13 03:50:00,-2.7,-6.6,30.17,NNW,348,0.0,2.0,83,0.00,,SKC,0.00,0.00,VWS V14.01,2013-01-13 10:50:00,
2013-01-13 03:56:00,-2.6,-6.5,30.16,NNW,348,0.0,2.0,83,0.00,,SKC,0.00,0.00,VWS V14.01,2013-01-13 10:56:00,
2013-01-13 04:00:00,-2.4,-6.3,30.15,NNW,348,0.0,2.0,83,0.00,,SKC,0.00,0.00,VWS V14.01,2013-01-13 11:00:00,
2013-01-13 04:03:00,-2.4,-6.3,30.16,NNW,348,0.0,0.0,83,0.00,,SKC,0.00,0.00,VWS V14.01,2013-01-13 11:03:00,
2013-01-13 04:09:00,-2.1,-5.7,30.16,NNW,348,2.0,3.0,84,0.00,,SKC,0.00,0.00,VWS V14.01,2013-01-13 11:09:00,
2013-01-13 04:15:00,-1.9,-5.8,30.17,North,350,0.0,3.0,83,0.00,,SKC,0.00,0.00,VWS V14.01,2013-01-13 11:15:00,
2013-01-13 04:21:00,-1.9,-5.8,30.17,North,350,0.0,0.0,83,0.00,,SKC,0.00,0.00,VWS V14.01,2013-01-13 11:21:00,
2013-01-13 04:27:00,-1.8,-5.4,30.17,North,350,0.0,0.0,84,0.00,,SKC,0.00,0.00,VWS V14.01,2013-01-13 11:27:00,
2013-01-13 04:30:00,-1.7,-5.6,30.17,North,349,0.0,0.0,83,0.00,,SKC,0.00,0.00,VWS V14.01,2013-01-13 11:30:00,
2013-01-13 04:33:00,-1.7,-5.6,30.17,North,350,0.0,0.0,83,0.00,,SKC,0.00,0.00,VWS V14.01,2013-01-13 11:33:00,
2013-01-13 04:39:00,-1.7,-5.6,30.17,North,349,0.0,0.0,83,0.00,,SKC,0.00,0.00,VWS V14.01,2013-01-13 11:39:00,
2013-01-13 04:45:00,-1.7,-5.6,30.16,North,350,0.0,0.0,83,0.00,,SKC,0.00,0.00,VWS V14.01,2013-01-13 11:45:00,
2013-01-13 04:51:00,-1.7,-5.6,30.16,North,350,0.0,0.0,83,0.00,,SKC,0.00,0.00,VWS V14.01,2013-01-13 11:51:00,
2013-01-13 04:57:00,-1.7,-5.6,30.16,North,350,0.0,0.0,83,0.00,,SKC,0.00,0.00,VWS V14.01,2013-01-13 11:57:00,
2013-01-13 05:00:00,-1.7,-5.6,30.16,North,350,0.0,0.0,83,0.00,,SKC,0.00,0.00,VWS V14.01,2013-01-13 12:00:00,
2013-01-13 05:03:00,-1.8,-5.7,30.18,North,349,0.0,0.0,83,0.00,,SKC,0.00,0.00,VWS V14.01,2013-01-13 12:03:00,
2013-01-13 05:09:00,-1.8,-5.7,30.18,North,350,0.0,0.0,83,0.00,,SKC,0.00,0.00,VWS V14.01,2013-01-13 12:09:00,
2013-01-13 05:15:00,-1.8,-5.7,30.18,North,350,0.0,0.0,83,0.00,,SKC,0.00,0.00,VWS V14.01,2013-01-13 12:15:00,
2013-01-13 05:21:00,-2.0,-5.9,30.18,North,350,0.0,0.0,83,0.00,,SKC,0.00,0.00,VWS V14.01,2013-01-13 12:21:00,
2013-01-13 05:27:00,-2.2,-6.3,30.19,North,350,0.0,0.0,82,0.00,,SKC,0.00,0.00,VWS V14.01,2013-01-13 12:27:00,
2013-01-13 05:30:00,-2.3,-6.4,30.19,North,350,0.0,0.0,82,0.00,,SKC,0.00,0.00,VWS V14.01,2013-01-13 12:30:00,
2013-01-13 05:33:00,-2.4,-6.5,30.19,North,350,0.0,0.0,82,0.00,,SKC,0.00,0.00,VWS V14.01,2013-01-13 12:33:00,
2013-01-13 05:39:00,-2.6,-7.0,30.21,North,350,0.0,0.0,81,0.00,,SKC,0.00,0.00,VWS V14.01,2013-01-13 12:39:00,
2013-01-13 05:44:00,-2.8,-7.2,30.21,North,349,0.0,0.0,81,0.00,,SKC,0.00,0.00,VWS V14.01,2013-01-13 12:44:00,
2013-01-13 05:45:00,-2.8,-7.2,30.21,North,349,0.0,0.0,81,0.00,,SKC,0.00,0.00,VWS V14.01,2013-01-13 12:45:00,
2013-01-13 05:51:00,-3.0,-7.4,30.21,North,350,0.0,0.0,81,0.00,,SKC,0.00,0.00,VWS V14.01,2013-01-13 12:51:00,
2013-01-13 05:56:00,-3.2,-7.6,30.21,North,349,0.0,0.0,81,0.00,,SKC,0.00,0.00,VWS V14.01,2013-01-13 12:56:00,
2013-01-13 06:00:00,-3.4,-7.8,30.21,North,349,0.0,0.0,81,0.00,,SKC,0.00,0.00,VWS V14.01,2013-01-13 13:00:00,
2013-01-13 06:03:00,-3.4,-7.8,30.21,North,349,0.0,2.0,81,0.00,,SKC,0.00,0.00,VWS V14.01,2013-01-13 13:03:00,
2013-01-13 06:09:00,-3.5,-7.9,30.23,North,350,0.0,2.0,81,0.00,,SKC,0.00,0.00,VWS V14.01,2013-01-13 13:09:00,
2013-01-13 06:15:00,-3.5,-7.9,30.23,North,349,0.0,2.0,81,0.00,,SKC,0.00,0.00,VWS V14.01,2013-01-13 13:15:00,
2013-01-13 06:22:00,-3.4,-7.5,30.21,North,350,0.0,0.0,82,0.00,,SKC,0.00,0.00,VWS V14.01,2013-01-13 13:22:00,
2013-01-13 06:27:00,-3.2,-7.3,30.22,North,350,0.0,0.0,82,0.00,,SKC,0.00,0.00,VWS V14.01,2013-01-13 13:27:00,
2013-01-13 06:30:00,-3.0,-6.9,30.22,North,350,0.0,0.0,83,0.00,,SKC,0.00,0.00,VWS V14.01,2013-01-13 13:30:00,
2013-01-13 06:33:00,-2.9,-6.8,30.22,North,349,0.0,0.0,83,0.00,,SKC,0.00,0.00,VWS V14.01,2013-01-13 13:33:00,
2013-01-13 06:38:00,-2.8,-6.7,30.22,North,350,0.0,0.0,83,0.00,,SKC,0.00,0.00,VWS V14.01,2013-01-13 13:38:00,
2013-01-13 06:43:00,-2.6,-6.5,30.22,North,350,0.0,0.0,83,0.00,,SKC,0.00,0.00,VWS V14.01,2013-01-13 13:43:00,
2013-01-13 06:45:00,-2.6,-6.5,30.22,North,350,0.0,0.0,83,0.00,,SKC,0.00,0.00,VWS V14.01,2013-01-13 13:45:00,
2013-01-13 06:49:00,-2.5,-6.4,30.22,North,350,0.0,0.0,83,0.00,,SKC,0.00,0.00,VWS V14.01,2013-01-13 13:49:00,
2013-01-13 06:55:00,-2.4,-6.3,30.22,North,349,0.0,0.0,83,0.00,,SKC,0.00,0.00,VWS V14.01,2013-01-13 13:55:00,
2013-01-13 07:00:00,-2.3,-6.2,30.22,North,349,0.0,0.0,83,0.00,,SKC,0.00,0.00,VWS V14.01,2013-01-13 14:00:00,
2013-01-13 07:06:00,-2.1,-5.7,30.24,North,350,0.0,0.0,84,0.00,,SKC,0.00,0.00,VWS V14.01,2013-01-13 14:06:00,
2013-01-13 07:12:00,-2.0,-5.6,30.24,North,350,0.0,0.0,84,0.00,,SKC,0.00,0.00,VWS V14.01,2013-01-13 14:12:00,
2013-01-13 07:15:00,-1.9,-5.8,30.24,North,350,0.0,0.0,83,0.00,,SKC,0.00,0.00,VWS V14.01,2013-01-13 14:15:00,
2013-01-13 07:18:00,-1.9,-5.8,30.24,North,350,0.0,0.0,83,0.00,,SKC,0.00,0.00,VWS V14.01,2013-01-13 14:18:00,
2013-01-13 07:24:00,-1.9,-5.8,30.24,North,350,0.0,0.0,83,0.00,,SKC,0.00,0.00,VWS V14.01,2013-01-13 14:24:00,
2013-01-13 07:30:00,-1.8,-5.7,30.25,North,349,0.0,0.0,83,0.00,,SKC,0.00,0.00,VWS V14.01,2013-01-13 14:30:00,
2013-01-13 07:36:00,-1.8,-5.7,30.25,North,350,0.0,0.0,83,0.00,,SKC,0.00,5.00,VWS V14.01,2013-01-13 14:36:00,
2013-01-13 07:42:00,-1.7,-5.6,30.25,North,349,0.0,0.0,83,0.00,,SKC,0.00,9.00,VWS V14.01,2013-01-13 14:42:00,
2013-01-13 07:45:00,-1.7,-5.6,30.25,North,349,0.0,0.0,83,0.00,,SKC,0.00,11.00,VWS V14.01,2013-01-13 14:45:00,
2013-01-13 07:48:00,-1.6,-5.5,30.25,North,349,0.0,0.0,83,0.00,,SKC,0.00,11.00,VWS V14.01,2013-01-13 14:48:00,
2013-01-13 07:54:00,-1.6,-5.2,30.26,North,350,0.0,0.0,84,0.00,,SKC,0.00,14.00,VWS V14.01,2013-01-13 14:54:00,
2013-01-13 08:00:00,-1.5,-5.2,30.26,North,349,0.0,0.0,84,0.00,,SKC,0.00,18.00,VWS V14.01,2013-01-13 15:00:00,
2013-01-13 08:06:00,-1.4,-5.1,30.27,North,349,0.0,0.0,84,0.00,,SKC,0.00,23.00,VWS V14.01,2013-01-13 15:06:00,
2013-01-13 08:12:00,-1.3,-4.9,30.27,North,349,0.0,0.0,84,0.00,,SKC,0.00,30.00,VWS V14.01,2013-01-13 15:12:00,
2013-01-13 08:15:00,-1.3,-4.9,30.27,North,349,0.0,0.0,84,0.00,,SKC,0.00,32.00,VWS V14.01,2013-01-13 15:15:00,
2013-01-13 08:19:00,-1.2,-4.8,30.28,North,349,0.0,0.0,84,0.00,,SKC,0.00,33.00,VWS V14.01,2013-01-13 15:19:00,
2013-01-13 08:24:00,-0.9,-4.6,30.28,North,349,0.0,0.0,84,0.00,,SKC,0.00,35.00,VWS V14.01,2013-01-13 15:24:00,
2013-01-13 08:30:00,-0.6,-4.3,30.28,North,350,0.0,0.0,84,0.00,,SKC,0.00,37.00,VWS V14.01,2013-01-13 15:30:00,
2013-01-13 08:36:00,-0.3,-4.0,30.26,North,349,0.0,0.0,84,0.00,,SKC,0.00,40.00,VWS V14.01,2013-01-13 15:36:00,
2013-01-13 08:42:00,-0.1,-3.4,30.26,North,350,0.0,0.0,85,0.00,,SKC,0.00,47.00,VWS V14.01,2013-01-13 15:42:00,
2013-01-13 08:45:00,0.1,-3.6,30.26,North,349,1.0,1.0,84,0.00,,SKC,0.00,46.00,VWS V14.01,2013-01-13 15:45:00,
2013-01-13 08:48:00,0.4,-3.0,30.26,North,350,0.0,1.0,85,0.00,,SKC,0.00,47.00,VWS V14.01,2013-01-13 15:48:00,
2013-01-13 08:54:00,0.6,-2.8,30.26,North,350,0.0,1.0,85,0.00,,SKC,0.00,42.00,VWS V14.01,2013-01-13 15:54:00,
2013-01-13 09:00:00,0.8,-2.9,30.26,North,350,0.0,1.0,84,0.00,,SKC,0.00,44.00,VWS V14.01,2013-01-13 16:00:00,
2013-01-13 09:06:00,0.9,-2.8,30.28,North,350,0.0,0.0,84,0.00,,SKC,0.00,51.00,VWS V14.01,2013-01-13 16:06:00,
2013-01-13 09:12:00,1.2,-2.5,30.28,North,349,0.0,0.0,84,0.00,,SKC,0.00,51.00,VWS V14.01,2013-01-13 16:12:00,
2013-01-13 09:15:00,1.3,-2.4,30.28,North,350,0.0,0.0,84,0.00,,SKC,0.00,53.00,VWS V14.01,2013-01-13 16:15:00,
2013-01-13 09:19:00,1.4,-2.3,30.28,North,350,0.0,0.0,84,0.00,,SKC,0.00,62.00,VWS V14.01,2013-01-13 16:19:00,
2013-01-13 09:25:00,1.5,-2.2,30.26,North,350,0.0,0.0,84,0.00,,SKC,0.00,70.00,VWS V14.01,2013-01-13 16:25:00,
2013-01-13 09:30:00,1.9,-1.8,30.26,North,350,0.0,0.0,84,0.00,,SKC,0.00,63.00,VWS V14.01,2013-01-13 16:30:00,
2013-01-13 09:31:00,1.9,-1.8,30.26,North,350,0.0,0.0,84,0.00,,SKC,0.00,63.00,VWS V14.01,2013-01-13 16:31:00,
2013-01-13 09:36:00,2.3,-1.4,30.26,North,350,0.0,0.0,84,0.00,,SKC,0.00,69.00,VWS V14.01,2013-01-13 16:36:00,
2013-01-13 09:41:00,2.7,-1.0,30.26,North,350,0.0,0.0,84,0.00,,SKC,0.00,77.00,VWS V14.01,2013-01-13 16:41:00,
2013-01-13 09:45:00,2.8,-0.9,30.26,North,350,0.0,0.0,84,0.00,,SKC,0.00,62.00,VWS V14.01,2013-01-13 16:45:00,
2013-01-13 09:47:00,2.8,-0.9,30.26,North,350,0.0,0.0,84,0.00,,SKC,0.00,86.00,VWS V14.01,2013-01-13 16:47:00,
2013-01-13 09:52:00,3.1,-0.6,30.26,North,350,0.0,0.0,84,0.00,,SKC,0.00,91.00,VWS V14.01,2013-01-13 16:52:00,
2013-01-13 09:59:00,3.5,-0.5,30.24,North,350,0.0,0.0,83,0.00,,SKC,0.00,72.00,VWS V14.01,2013-01-13 16:59:00,
2013-01-13 10:00:00,3.6,-0.4,30.25,North,349,0.0,0.0,83,0.00,,SKC,0.00,83.00,VWS V14.01,2013-01-13 17:00:00,
2013-01-13 10:05:00,3.9,-0.1,30.25,North,350,0.0,0.0,83,0.00,,SKC,0.00,90.00,VWS V14.01,2013-01-13 17:05:00,
2013-01-13 10:11:00,4.3,0.3,30.25,North,350,0.0,0.0,83,0.00,,SKC,0.00,158.00,VWS V14.01,2013-01-13 17:11:00,
2013-01-13 10:15:00,5.0,1.0,30.23,North,349,0.0,0.0,83,0.00,,SKC,0.00,195.00,VWS V14.01,2013-01-13 17:15:00,
2013-01-13 10:17:00,5.3,1.3,30.23,North,349,0.0,0.0,83,0.00,,SKC,0.00,197.00,VWS V14.01,2013-01-13 17:17:00,
2013-01-13 10:23:00,6.6,2.8,30.21,North,350,0.0,0.0,84,0.00,,SKC,0.00,304.00,VWS V14.01,2013-01-13 17:23:00,
2013-01-13 10:29:00,8.1,3.8,30.21,North,350,0.0,0.0,82,0.00,,SKC,0.00,287.00,VWS V14.01,2013-01-13 17:29:00,
2013-01-13 10:30:00,8.3,3.7,30.21,North,349,0.0,0.0,81,0.00,,SKC,0.00,278.00,VWS V14.01,2013-01-13 17:30:00,
2013-01-13 10:35:00,8.9,3.5,30.19,North,350,0.0,0.0,78,0.00,,SKC,0.00,227.00,VWS V14.01,2013-01-13 17:35:00,
2013-01-13 10:41:00,9.8,3.2,30.19,North,349,0.0,1.0,74,0.00,,SKC,0.00,227.00,VWS V14.01,2013-01-13 17:41:00,
2013-01-13 10:45:00,10.1,3.2,30.18,North,350,0.0,1.0,73,0.00,,SKC,0.00,179.00,VWS V14.01,2013-01-13 17:45:00,
2013-01-13 10:47:00,10.2,3.0,30.18,North,350,1.0,2.0,72,0.00,,SKC,0.00,162.00,VWS V14.01,2013-01-13 17:47:00,
2013-01-13 10:53:00,10.1,2.6,30.18,North,350,0.0,2.0,71,0.00,,SKC,0.00,199.00,VWS V14.01,2013-01-13 17:53:00,
2013-01-13 10:59:00,9.9,2.4,30.18,North,350,0.0,3.0,71,0.00,,SKC,0.00,188.00,VWS V14.01,2013-01-13 17:59:00,
2013-01-13 11:00:00,9.9,2.4,30.18,North,349,1.0,3.0,71,0.00,,SKC,0.00,179.00,VWS V14.01,2013-01-13 18:00:00,
2013-01-13 11:05:00,10.0,2.2,30.16,North,349,2.0,2.0,70,0.00,,SKC,0.00,165.00,VWS V14.01,2013-01-13 18:05:00,
2013-01-13 11:12:00,10.0,2.2,30.16,North,350,2.0,3.0,70,0.00,,SKC,0.00,174.00,VWS V14.01,2013-01-13 18:12:00,
2013-01-13 11:15:00,10.0,2.2,30.15,North,355,2.0,4.0,70,0.00,,SKC,0.00,185.00,VWS V14.01,2013-01-13 18:15:00,
2013-01-13 11:18:00,10.1,2.3,30.15,NNE,16,4.0,4.0,70,0.00,,SKC,0.00,192.00,VWS V14.01,2013-01-13 18:18:00,
2013-01-13 11:24:00,10.2,2.4,30.15,NE,34,2.0,6.0,70,0.00,,SKC,0.00,185.00,VWS V14.01,2013-01-13 18:24:00,
2013-01-13 11:30:00,9.9,1.8,30.15,NE,38,4.0,6.0,69,0.00,,SKC,0.00,229.00,VWS V14.01,2013-01-13 18:30:00,
2013-01-13 11:36:00,10.3,2.2,30.14,NE,36,3.0,5.0,69,0.00,,SKC,0.00,229.00,VWS V14.01,2013-01-13 18:36:00,
2013-01-13 11:42:00,10.9,2.4,30.14,North,11,6.0,6.0,68,0.00,,SKC,0.00,309.00,VWS V14.01,2013-01-13 18:42:00,
2013-01-13 11:45:00,11.3,2.2,30.13,North,360,2.0,6.0,66,0.00,,SKC,0.00,229.00,VWS V14.01,2013-01-13 18:45:00,
2013-01-13 11:48:00,11.6,2.5,30.11,NNE,13,1.0,3.0,66,0.00,,SKC,0.00,316.00,VWS V14.01,2013-01-13 18:48:00,
2013-01-13 11:54:00,12.1,1.9,30.11,North,11,3.0,4.0,63,0.00,,SKC,0.00,309.00,VWS V14.01,2013-01-13 18:54:00,
2013-01-13 12:00:00,12.4,1.9,30.10,NE,36,2.0,6.0,62,0.00,,SKC,0.00,304.00,VWS V14.01,2013-01-13 19:00:00,
2013-01-13 12:06:00,12.4,1.5,30.12,NE,41,3.0,7.0,61,0.00,,SKC,0.00,169.00,VWS V14.01,2013-01-13 19:06:00,
2013-01-13 12:12:00,12.3,1.1,30.11,NNE,13,1.0,7.0,60,0.00,,SKC,0.00,229.00,VWS V14.01,2013-01-13 19:12:00,
2013-01-13 12:15:00,12.5,0.5,30.11,NNE,27,0.0,7.0,58,0.00,,SKC,0.00,260.00,VWS V14.01,2013-01-13 19:15:00,
2013-01-13 12:18:00,12.5,0.9,30.09,NNE,15,0.0,6.0,59,0.00,,SKC,0.00,197.00,VWS V14.01,2013-01-13 19:18:00,
2013-01-13 12:23:00,12.6,1.0,30.09,North,11,1.0,6.0,59,0.00,,SKC,0.00,262.00,VWS V14.01,2013-01-13 19:23:00,
2013-01-13 12:30:00,12.7,0.7,30.09,NNW,334,6.0,6.0,58,0.00,,SKC,0.00,193.00,VWS V14.01,2013-01-13 19:30:00,
2013-01-13 12:35:00,13.1,0.7,30.09,NNE,18,6.0,6.0,57,0.00,,SKC,0.00,230.00,VWS V14.01,2013-01-13 19:35:00,
2013-01-13 12:41:00,13.0,1.0,30.09,NE,34,6.0,6.0,58,0.00,,SKC,0.00,200.00,VWS V14.01,2013-01-13 19:41:00,
2013-01-13 12:45:00,12.8,0.8,30.09,NNE,22,6.0,8.0,58,0.00,,SKC,0.00,206.00,VWS V14.01,2013-01-13 19:45:00,
2013-01-13 12:47:00,12.9,0.9,30.09,North,9,4.0,6.0,58,0.00,,SKC,0.00,209.00,VWS V14.01,2013-01-13 19:47:00,
2013-01-13 12:54:00,13.0,0.6,30.08,North,360,3.0,6.0,57,0.00,,SKC,0.00,188.00,VWS V14.01,2013-01-13 19:54:00,
2013-01-13 13:00:00,13.1,0.7,30.08,NNE,14,9.0,9.0,57,0.00,,SKC,0.00,213.00,VWS V14.01,2013-01-13 20:00:00,
2013-01-13 13:06:00,13.3,1.3,30.12,NNE,23,9.0,9.0,58,0.00,,SKC,0.00,209.00,VWS V14.01,2013-01-13 20:06:00,
2013-01-13 13:13:00,13.3,1.7,30.12,NNE,22,4.0,9.0,59,0.00,,SKC,0.00,185.00,VWS V14.01,2013-01-13 20:13:00,
2013-01-13 13:15:00,13.3,1.7,30.12,NNE,21,2.0,9.0,59,0.00,,SKC,0.00,179.00,VWS V14.01,2013-01-13 20:15:00,
2013-01-13 13:19:00,13.3,1.7,30.12,NNE,14,6.0,9.0,59,0.00,,SKC,0.00,185.00,VWS V14.01,2013-01-13 20:19:00,
2013-01-13 13:25:00,13.6,2.0,30.10,NNE,24,1.0,9.0,59,0.00,,SKC,0.00,218.00,VWS V14.01,2013-01-13 20:25:00,
2013-01-13 13:30:00,13.9,2.2,30.10,North,11,5.0,9.0,59,0.00,,SKC,0.00,195.00,VWS V14.01,2013-01-13 20:30:00,
2013-01-13 13:31:00,13.9,2.2,30.10,NNE,19,2.0,9.0,59,0.00,,SKC,0.00,195.00,VWS V14.01,2013-01-13 20:31:00,
2013-01-13 13:37:00,13.9,2.2,30.10,NNE,15,3.0,10.0,59,0.00,,SKC,0.00,218.00,VWS V14.01,2013-01-13 20:37:00,
2013-01-13 13:43:00,14.1,2.8,30.10,North,10,5.0,10.0,60,0.00,,SKC,0.00,234.00,VWS V14.01,2013-01-13 20:43:00,
2013-01-13 13:45:00,14.2,2.5,30.10,NE,37,5.0,10.0,59,0.00,,SKC,0.00,232.00,VWS V14.01,2013-01-13 20:45:00,
2013-01-13 13:49:00,14.4,2.7,30.10,NNE,13,1.0,7.0,59,0.00,,SKC,0.00,190.00,VWS V14.01,2013-01-13 20:49:00,
2013-01-13 13:55:00,14.4,2.7,30.10,North,5,2.0,7.0,59,0.00,,SKC,0.00,190.00,VWS V14.01,2013-01-13 20:55:00,
2013-01-13 14:00:00,14.2,2.5,30.10,NNE,19,3.0,7.0,59,0.00,,SKC,0.00,216.00,VWS V14.01,2013-01-13 21:00:00,
2013-01-13 14:06:00,14.1,3.1,30.12,NE,48,8.0,8.0,61,0.00,,SKC,0.00,229.00,VWS V14.01,2013-01-13 21:06:00,
2013-01-13 14:12:00,14.2,3.6,30.12,NNE,13,3.0,10.0,62,0.00,,SKC,0.00,192.00,VWS V14.01,2013-01-13 21:12:00,
2013-01-13 14:15:00,14.2,3.6,30.12,NNE,15,5.0,10.0,62,0.00,,SKC,0.00,176.00,VWS V14.01,2013-01-13 21:15:00,
2013-01-13 14:18:00,14.1,3.5,30.12,NNE,24,11.0,11.0,62,0.00,,SKC,0.00,186.00,VWS V14.01,2013-01-13 21:18:00,
2013-01-13 14:24:00,14.1,4.2,30.12,NNE,25,3.0,11.0,64,0.00,,SKC,0.00,207.00,VWS V14.01,2013-01-13 21:24:00,
2013-01-13 14:30:00,14.0,4.4,30.12,NNW,348,5.0,11.0,65,0.00,,SKC,0.00,204.00,VWS V14.01,2013-01-13 21:30:00,
2013-01-13 14:36:00,14.0,4.8,30.13,North,360,7.0,10.0,66,0.00,,SKC,0.00,185.00,VWS V14.01,2013-01-13 21:36:00,
2013-01-13 14:42:00,13.8,4.9,30.13,NNE,15,6.0,10.0,67,0.00,,SKC,0.00,158.00,VWS V14.01,2013-01-13 21:42:00,
2013-01-13 14:45:00,13.6,5.0,30.13,North,350,3.0,10.0,68,0.00,,SKC,0.00,123.00,VWS V14.01,2013-01-13 21:45:00,
2013-01-13 14:48:00,13.5,5.2,30.13,NNW,348,3.0,10.0,69,0.00,,SKC,0.00,127.00,VWS V14.01,2013-01-13 21:48:00,
2013-01-13 14:54:00,13.4,5.8,30.14,North,350,4.0,10.0,71,0.00,,SKC,0.00,125.00,VWS V14.01,2013-01-13 21:54:00,
2013-01-13 15:00:00,13.2,5.9,30.14,NNW,345,5.0,10.0,72,0.00,,SKC,0.00,109.00,VWS V14.01,2013-01-13 22:00:00,
2013-01-13 15:06:00,12.9,6.2,30.14,North,11,3.0,6.0,74,0.00,,SKC,0.00,100.00,VWS V14.01,2013-01-13 22:06:00,
2013-01-13 15:12:00,12.7,6.6,30.15,NNE,21,0.0,6.0,76,0.00,,SKC,0.00,93.00,VWS V14.01,2013-01-13 22:12:00,
2013-01-13 15:15:00,12.6,6.5,30.15,NNE,20,1.0,7.0,76,0.00,,SKC,0.00,79.00,VWS V14.01,2013-01-13 22:15:00,
2013-01-13 15:18:00,12.5,6.7,30.15,NNE,14,6.0,6.0,77,0.00,,SKC,0.00,86.00,VWS V14.01,2013-01-13 22:18:00,
2013-01-13 15:24:00,12.2,6.7,30.15,North,360,1.0,9.0,78,0.00,,SKC,0.00,76.00,VWS V14.01,2013-01-13 22:24:00,
2013-01-13 15:30:00,12.2,6.9,30.15,North,355,3.0,9.0,79,0.00,,SKC,0.00,91.00,VWS V14.01,2013-01-13 22:30:00,
2013-01-13 15:36:00,12.2,6.9,30.16,North,349,3.0,4.0,79,0.00,,SKC,0.00,69.00,VWS V14.01,2013-01-13 22:36:00,
2013-01-13 15:42:00,12.1,6.8,30.16,North,11,2.0,4.0,79,0.00,,SKC,0.00,67.00,VWS V14.01,2013-01-13 22:42:00,
2013-01-13 15:45:00,12.1,6.8,30.16,North,350,0.0,4.0,79,0.00,,SKC,0.00,69.00,VWS V14.01,2013-01-13 22:45:00,
2013-01-13 15:49:00,12.1,7.1,30.16,NE,34,0.0,5.0,80,0.00,,SKC,0.00,72.00,VWS V14.01,2013-01-13 22:49:00,
2013-01-13 15:55:00,12.1,7.1,30.16,NE,35,0.0,5.0,80,0.00,,SKC,0.00,58.00,VWS V14.01,2013-01-13 22:55:00,
2013-01-13 16:00:00,11.8,6.8,30.16,NNE,24,0.0,5.0,80,0.00,,SKC,0.00,44.00,VWS V14.01,2013-01-13 23:00:00,
2013-01-13 16:01:00,11.8,6.8,30.16,NNE,24,0.0,5.0,80,0.00,,SKC,0.00,44.00,VWS V14.01,2013-01-13 23:01:00,
2013-01-13 16:06:00,11.6,6.6,30.17,North,9,5.0,9.0,80,0.00,,SKC,0.00,39.00,VWS V14.01,2013-01-13 23:06:00,
2013-01-13 16:12:00,11.4,6.4,30.18,NNE,14,0.0,10.0,80,0.00,,SKC,0.00,39.00,VWS V14.01,2013-01-13 23:12:00,
2013-01-13 16:15:00,11.4,6.4,30.18,NNE,13,4.0,10.0,80,0.00,,SKC,0.00,28.00,VWS V14.01,2013-01-13 23:15:00,
2013-01-13 16:18:00,11.3,6.3,30.19,NNE,15,3.0,6.0,80,0.00,,SKC,0.00,26.00,VWS V14.01,2013-01-13 23:18:00,
2013-01-13 16:24:00,11.2,6.2,30.19,NNE,15,0.0,6.0,80,0.00,,SKC,0.00,26.00,VWS V14.01,2013-01-13 23:24:00,
2013-01-13 16:30:00,11.2,6.2,30.19,NNE,16,4.0,6.0,80,0.00,,SKC,0.00,18.00,VWS V14.01,2013-01-13 23:30:00,
2013-01-13 16:36:00,11.2,6.5,30.19,North,5,0.0,4.0,81,0.00,,SKC,0.00,11.00,VWS V14.01,2013-01-13 23:36:00,
2013-01-13 16:43:00,11.1,6.4,30.19,North,5,1.0,4.0,81,0.00,,SKC,0.00,7.00,VWS V14.01,2013-01-13 23:43:00,
2013-01-13 16:45:00,11.1,6.4,30.19,NNW,338,0.0,5.0,81,0.00,,SKC,0.00,7.00,VWS V14.01,2013-01-13 23:45:00,
2013-01-13 16:49:00,11.0,6.3,30.19,NNW,338,0.0,2.0,81,0.00,,SKC,0.00,5.00,VWS V14.01,2013-01-13 23:49:00,
2013-01-13 16:55:00,11.0,6.3,30.19,NNW,338,0.0,4.0,81,0.00,,SKC,0.00,0.00,VWS V14.01,2013-01-13 23:55:00,
2013-01-13 17:00:00,10.9,6.2,30.19,North,355,2.0,4.0,81,0.00,,SKC,0.00,0.00,VWS V14.01,2013-01-14 00:00:00,
2013-01-13 17:07:00,10.9,6.5,30.20,North,355,0.0,4.0,82,0.00,,SKC,0.00,0.00,VWS V14.01,2013-01-14 00:07:00,
2013-01-13 17:13:00,10.8,6.4,30.20,North,355,1.0,4.0,82,0.00,,SKC,0.00,0.00,VWS V14.01,2013-01-14 00:13:00,
2013-01-13 17:15:00,10.8,6.4,30.20,North,355,1.0,4.0,82,0.00,,SKC,0.00,0.00,VWS V14.01,2013-01-14 00:15:00,
2013-01-13 17:19:00,10.7,6.3,30.20,North,355,0.0,3.0,82,0.00,,SKC,0.00,0.00,VWS V14.01,2013-01-14 00:19:00,
2013-01-13 17:25:00,10.7,6.3,30.20,North,355,0.0,3.0,82,0.00,,SKC,0.00,0.00,VWS V14.01,2013-01-14 00:25:00,
2013-01-13 17:30:00,10.7,6.3,30.20,North,355,0.0,3.0,82,0.00,,SKC,0.00,0.00,VWS V14.01,2013-01-14 00:30:00,
2013-01-13 17:36:00,10.6,6.2,30.21,North,355,0.0,1.0,82,0.00,,SKC,0.00,0.00,VWS V14.01,2013-01-14 00:36:00,
2013-01-13 17:42:00,10.6,6.2,30.21,North,355,0.0,1.0,82,0.00,,SKC,0.00,0.00,VWS V14.01,2013-01-14 00:42:00,
2013-01-13 17:45:00,10.6,6.2,30.21,North,355,2.0,2.0,82,0.00,,SKC,0.00,0.00,VWS V14.01,2013-01-14 00:45:00,
2013-01-13 17:48:00,10.5,6.1,30.21,North,355,0.0,3.0,82,0.00,,SKC,0.00,0.00,VWS V14.01,2013-01-14 00:48:00,
2013-01-13 17:54:00,10.5,6.1,30.21,North,355,0.0,3.0,82,0.00,,SKC,0.00,0.00,VWS V14.01,2013-01-14 00:54:00,
2013-01-13 18:00:00,10.5,6.4,30.21,North,355,0.0,3.0,83,0.00,,SKC,0.00,0.00,VWS V14.01,2013-01-14 01:00:00,
2013-01-13 18:06:00,10.4,6.3,30.21,North,355,0.0,2.0,83,0.00,,SKC,0.00,0.00,VWS V14.01,2013-01-14 01:06:00,
2013-01-13 18:12:00,10.4,6.3,30.22,North,355,0.0,2.0,83,0.00,,SKC,0.00,0.00,VWS V14.01,2013-01-14 01:12:00,
2013-01-13 18:15:00,10.4,6.3,30.22,North,355,0.0,2.0,83,0.00,,SKC,0.00,0.00,VWS V14.01,2013-01-14 01:15:00,
2013-01-13 18:18:00,10.4,6.3,30.22,North,355,0.0,1.0,83,0.00,,SKC,0.00,0.00,VWS V14.01,2013-01-14 01:18:00,
2013-01-13 18:24:00,10.3,6.2,30.22,North,355,0.0,1.0,83,0.00,,SKC,0.00,0.00,VWS V14.01,2013-01-14 01:24:00,
2013-01-13 18:30:00,10.3,6.2,30.22,North,355,0.0,1.0,83,0.00,,SKC,0.00,0.00,VWS V14.01,2013-01-14 01:30:00,
2013-01-13 18:36:00,10.3,6.2,30.22,North,355,0.0,2.0,83,0.00,,SKC,0.00,0.00,VWS V14.01,2013-01-14 01:36:00,
2013-01-13 18:42:00,10.2,6.1,30.23,North,355,0.0,2.0,83,0.00,,SKC,0.00,0.00,VWS V14.01,2013-01-14 01:42:00,
2013-01-13 18:45:00,10.2,6.1,30.23,North,355,0.0,3.0,83,0.00,,SKC,0.00,0.00,VWS V14.01,2013-01-14 01:45:00,
2013-01-13 18:49:00,10.2,6.1,30.23,North,355,0.0,2.0,83,0.00,,SKC,0.00,0.00,VWS V14.01,2013-01-14 01:49:00,
2013-01-13 18:55:00,10.2,6.1,30.23,North,355,0.0,3.0,83,0.00,,SKC,0.00,0.00,VWS V14.01,2013-01-14 01:55:00,
2013-01-13 19:00:00,10.1,6.0,30.23,North,355,0.0,3.0,83,0.00,,SKC,0.00,0.00,VWS V14.01,2013-01-14 02:00:00,
2013-01-13 19:07:00,10.1,6.0,30.23,North,355,1.0,1.0,83,0.00,,SKC,0.00,0.00,VWS V14.01,2013-01-14 02:07:00,
2013-01-13 19:13:00,10.0,5.9,30.23,North,355,1.0,2.0,83,0.00,,SKC,0.00,0.00,VWS V14.01,2013-01-14 02:13:00,
2013-01-13 19:15:00,10.0,5.9,30.23,North,355,0.0,2.0,83,0.00,,SKC,0.00,0.00,VWS V14.01,2013-01-14 02:15:00,
2013-01-13 19:19:00,10.0,5.9,30.23,North,355,0.0,1.0,83,0.00,,SKC,0.00,0.00,VWS V14.01,2013-01-14 02:19:00,
2013-01-13 19:25:00,9.9,5.8,30.24,North,355,1.0,2.0,83,0.00,,SKC,0.00,0.00,VWS V14.01,2013-01-14 02:25:00,
2013-01-13 19:30:00,9.9,5.8,30.24,North,355,0.0,2.0,83,0.00,,SKC,0.00,0.00,VWS V14.01,2013-01-14 02:30:00,
2013-01-13 19:31:00,9.9,5.8,30.24,North,355,0.0,0.0,83,0.00,,SKC,0.00,0.00,VWS V14.01,2013-01-14 02:31:00,
2013-01-13 19:38:00,9.9,5.8,30.24,North,355,0.0,2.0,83,0.00,,SKC,0.00,0.00,VWS V14.01,2013-01-14 02:38:00,
2013-01-13 19:44:00,9.9,5.8,30.24,North,355,0.0,2.0,83,0.00,,SKC,0.00,0.00,VWS V14.01,2013-01-14 02:44:00,
2013-01-13 19:45:00,9.9,5.8,30.24,North,355,0.0,2.0,83,0.00,,SKC,0.00,0.00,VWS V14.01,2013-01-14 02:45:00,
2013-01-13 19:50:00,9.9,5.8,30.24,North,355,0.0,2.0,83,0.00,,SKC,0.00,0.00,VWS V14.01,2013-01-14 02:50:00,
2013-01-13 19:56:00,9.8,5.9,30.24,North,11,5.0,5.0,84,0.00,,SKC,0.00,0.00,VWS V14.01,2013-01-14 02:56:00,
2013-01-13 20:00:00,9.6,5.8,30.24,NNE,19,1.0,7.0,84,0.00,,SKC,0.00,0.00,VWS V14.01,2013-01-14 03:00:00,
2013-01-13 20:02:00,9.6,5.5,30.22,North,9,0.0,6.0,83,0.00,,SKC,0.00,0.00,VWS V14.01,2013-01-14 03:02:00,
2013-01-13 20:08:00,9.3,5.2,30.22,North,351,1.0,6.0,83,0.00,,SKC,0.00,0.00,VWS V14.01,2013-01-14 03:08:00,
2013-01-13 20:14:00,9.1,5.0,30.22,NNE,32,1.0,6.0,83,0.00,,SKC,0.00,0.00,VWS V14.01,2013-01-14 03:14:00,
2013-01-13 20:15:00,9.0,4.9,30.22,NNE,32,2.0,6.0,83,0.00,,SKC,0.00,0.00,VWS V14.01,2013-01-14 03:15:00,
2013-01-13 20:20:00,8.9,4.8,30.22,NNE,17,0.0,4.0,83,0.00,,SKC,0.00,0.00,VWS V14.01,2013-01-14 03:20:00,
2013-01-13 20:26:00,8.8,4.7,30.22,NE,47,2.0,4.0,83,0.00,,SKC,0.00,0.00,VWS V14.01,2013-01-14 03:26:00,
2013-01-13 20:30:00,8.7,4.6,30.23,NE,46,0.0,4.0,83,0.00,,SKC,0.00,0.00,VWS V14.01,2013-01-14 03:30:00,
2013-01-13 20:32:00,8.7,4.6,30.23,NE,47,0.0,0.0,83,0.00,,SKC,0.00,0.00,VWS V14.01,2013-01-14 03:32:00,
2013-01-13 20:38:00,8.5,4.4,30.23,NE,34,1.0,4.0,83,0.00,,SKC,0.00,0.00,VWS V14.01,2013-01-14 03:38:00,
2013-01-13 20:44:00,8.4,4.3,30.24,NNE,30,0.0,4.0,83,0.00,,SKC,0.00,0.00,VWS V14.01,2013-01-14 03:44:00,
2013-01-13 20:45:00,8.3,4.2,30.24,NNE,29,1.0,4.0,83,0.00,,SKC,0.00,0.00,VWS V14.01,2013-01-14 03:45:00,
2013-01-13 20:51:00,8.3,4.2,30.25,NNE,30,1.0,2.0,83,0.00,,SKC,0.00,0.00,VWS V14.01,2013-01-14 03:51:00,
2013-01-13 20:57:00,8.2,4.1,30.25,NNE,30,0.0,2.0,83,0.00,,SKC,0.00,0.00,VWS V14.01,2013-01-14 03:57:00,
2013-01-13 21:00:00,8.2,4.1,30.25,NNE,30,0.0,2.0,83,0.00,,SKC,0.00,0.00,VWS V14.01,2013-01-14 04:00:00,
2013-01-13 21:03:00,8.2,4.1,30.21,NNE,29,0.0,1.0,83,0.00,,SKC,0.00,0.00,VWS V14.01,2013-01-14 04:03:00,
2013-01-13 21:09:00,8.1,4.0,30.21,NNE,30,0.0,1.0,83,0.00,,SKC,0.00,0.00,VWS V14.01,2013-01-14 04:09:00,
2013-01-13 21:15:00,8.1,4.0,30.21,NNE,29,0.0,2.0,83,0.00,,SKC,0.00,0.00,VWS V14.01,2013-01-14 04:15:00,
2013-01-13 21:21:00,8.0,3.9,30.22,NNE,30,0.0,2.0,83,0.00,,SKC,0.00,0.00,VWS V14.01,2013-01-14 04:21:00,
2013-01-13 21:27:00,7.9,3.8,30.22,NNE,29,0.0,2.0,83,0.00,,SKC,0.00,0.00,VWS V14.01,2013-01-14 04:27:00,
2013-01-13 21:30:00,7.8,3.7,30.21,NNE,30,0.0,2.0,83,0.00,,SKC,0.00,0.00,VWS V14.01,2013-01-14 04:30:00,
2013-01-13 21:33:00,7.8,3.7,30.21,NNE,29,0.0,1.0,83,0.00,,SKC,0.00,0.00,VWS V14.01,2013-01-14 04:33:00,
2013-01-13 21:39:00,7.8,3.7,30.22,NNE,30,0.0,1.0,83,0.00,,SKC,0.00,0.00,VWS V14.01,2013-01-14 04:39:00,
2013-01-13 21:45:00,7.7,3.6,30.22,NNE,29,0.0,1.0,83,0.00,,SKC,0.00,0.00,VWS V14.01,2013-01-14 04:45:00,
2013-01-13 21:51:00,7.7,3.6,30.22,NNE,30,0.0,0.0,83,0.00,,SKC,0.00,0.00,VWS V14.01,2013-01-14 04:51:00,
2013-01-13 21:57:00,7.6,3.5,30.22,NNE,30,0.0,0.0,83,0.00,,SKC,0.00,0.00,VWS V14.01,2013-01-14 04:57:00,
2013-01-13 22:00:00,7.6,3.5,30.22,NNE,30,0.0,0.0,83,0.00,,SKC,0.00,0.00,VWS V14.01,2013-01-14 05:00:00,
2013-01-13 22:04:00,7.6,3.5,30.17,NNE,30,0.0,0.0,83,0.00,,SKC,0.00,0.00,VWS V14.01,2013-01-14 05:04:00,
2013-01-13 22:10:00,7.5,3.4,30.19,NNE,29,0.0,0.0,83,0.00,,SKC,0.00,0.00,VWS V14.01,2013-01-14 05:10:00,
2013-01-13 22:13:00,7.4,3.3,30.19,NNE,29,0.0,0.0,83,0.00,,SKC,0.00,0.00,VWS V14.01,2013-01-14 05:13:00,
2013-01-13 22:15:00,7.3,3.2,30.19,NNE,29,0.0,0.0,83,0.00,,SKC,0.00,0.00,VWS V14.01,2013-01-14 05:15:00,
2013-01-13 22:19:00,7.2,3.1,30.19,NNE,30,0.0,0.0,83,0.00,,SKC,0.00,0.00,VWS V14.01,2013-01-14 05:19:00,
2013-01-13 22:25:00,7.1,5.3,30.19,NNE,30,0.0,0.0,92,0.00,,SKC,0.00,0.00,VWS V14.01,2013-01-14 05:25:00,
2013-01-13 22:30:00,7.0,2.9,30.19,NNE,30,0.0,0.0,83,0.00,,SKC,0.00,0.00,VWS V14.01,2013-01-14 05:30:00,
2013-01-13 22:35:00,6.9,2.8,30.19,NNE,30,0.0,0.0,83,0.00,,SKC,0.00,0.00,VWS V14.01,2013-01-14 05:35:00,
2013-01-13 22:41:00,6.8,2.7,30.19,NNE,29,0.0,0.0,83,0.00,,SKC,0.00,0.00,VWS V14.01,2013-01-14 05:41:00,
2013-01-13 22:47:00,6.6,2.5,30.19,NNE,30,0.0,0.0,83,0.00,,SKC,0.00,0.00,VWS V14.01,2013-01-14 05:47:00,
2013-01-13 22:53:00,6.4,2.3,30.19,NNE,29,0.0,2.0,83,0.00,,SKC,0.00,0.00,VWS V14.01,2013-01-14 05:53:00,
2013-01-13 22:59:00,6.2,2.2,30.19,NNE,30,0.0,2.0,83,0.00,,SKC,0.00,0.00,VWS V14.01,2013-01-14 05:59:00,
2013-01-13 23:00:00,6.2,2.2,30.19,NNE,29,0.0,2.0,83,0.00,,SKC,0.00,0.00,VWS V14.01,2013-01-14 06:00:00,
2013-01-13 23:05:00,6.0,2.0,30.18,NNE,30,1.0,1.0,83,0.00,,SKC,0.00,0.00,VWS V14.01,2013-01-14 06:05:00,
2013-01-13 23:11:00,5.8,1.8,30.18,NNE,30,0.0,1.0,83,0.00,,SKC,0.00,0.00,VWS V14.01,2013-01-14 06:11:00,
2013-01-13 23:15:00,5.7,1.4,30.18,NNE,29,0.0,1.0,82,0.00,,SKC,0.00,0.00,VWS V14.01,2013-01-14 06:15:00,
2013-01-13 23:18:00,5.6,1.3,30.18,NNE,30,0.0,0.0,82,0.00,,SKC,0.00,0.00,VWS V14.01,2013-01-14 06:18:00,
2013-01-13 23:24:00,5.4,1.1,30.20,NNE,30,0.0,1.0,82,0.00,,SKC,0.00,0.00,VWS V14.01,2013-01-14 06:24:00,
2013-01-13 23:30:00,5.1,0.8,30.20,NNE,29,0.0,2.0,82,0.00,,SKC,0.00,0.00,VWS V14.01,2013-01-14 06:30:00,
2013-01-13 23:36:00,4.9,0.6,30.20,NNE,30,0.0,0.0,82,0.00,,SKC,0.00,0.00,VWS V14.01,2013-01-14 06:36:00,
2013-01-13 23:42:00,4.6,0.1,30.21,NNE,30,0.0,0.0,81,0.00,,SKC,0.00,0.00,VWS V14.01,2013-01-14 06:42:00,
2013-01-13 23:45:00,4.5,0.2,30.20,NNE,29,0.0,0.0,82,0.00,,SKC,0.00,0.00,VWS V14.01,2013-01-14 06:45:00,
2013-01-13 23:48:00,4.4,-0.1,30.20,NNE,30,0.0,0.0,81,0.00,,SKC,0.00,0.00,VWS V14.01,2013-01-14 06:48:00,
2013-01-13 23:54:00,4.1,-0.4,30.20,NNE,30,0.0,0.0,81,0.00,,SKC,0.00,0.00,VWS V14.01,2013-01-14 06:54:00,